Time;durP1;ratioP1;P1;durP2;ratioP2;P2;SDS_P1;SDS_P2;PMS_P1;PMS_P2;Temp;Humidity;BMP_temperature;BMP_pressure;BME280_temperature;BME280_humidity;BME280_pressure;Samples;Min_cycle;Max_cycle;Signal;HPM_P1;HPM_P2
2022/07/15 00:04:38;;;;;;;1.77;1.00;;;27.80;51.70;;;26.81;38.68;99653.59;10437107;27;96939;-78
2022/07/15 00:15:05;;;;;;;2.30;1.20;;;27.60;52.60;;;26.62;39.62;99664.44;10453745;27;96582;-78
2022/07/15 00:20:11;;;;;;;1.98;0.95;;;27.40;52.90;;;26.52;39.48;99651.72;10460493;27;96665;-79
2022/07/15 00:25:15;;;;;;;1.90;1.13;;;27.40;53.20;;;26.44;40.44;99646.88;10444787;27;96557;-79
2022/07/15 00:30:19;;;;;;;2.83;1.42;;;27.30;53.70;;;26.39;41.08;99612.31;10440944;27;96627;-80
2022/07/15 00:35:22;;;;;;;1.98;1.50;;;27.20;54.60;;;26.37;42.11;99606.31;10463026;27;96511;-80
2022/07/15 00:40:26;;;;;;;3.05;1.25;;;27.20;55.60;;;26.33;42.22;99613.47;10460457;27;96560;-79
2022/07/15 00:45:29;;;;;;;1.83;1.20;;;27.20;56.00;;;26.31;42.68;99599.28;10443778;27;97329;-79
2022/07/15 00:50:33;;;;;;;3.00;1.20;;;27.10;56.20;;;26.24;42.88;99595.28;10445032;27;96439;-79
2022/07/15 00:55:44;;;;;;;4.70;1.42;;;27.10;56.50;;;26.18;43.35;99601.88;10423509;27;96743;-79
2022/07/15 01:00:49;;;;;;;2.55;1.30;;;27.00;56.70;;;26.08;43.25;99638.97;10436588;27;96685;-79
2022/07/15 01:05:54;;;;;;;3.10;1.40;;;26.90;56.90;;;26.00;43.72;99649.66;10441715;27;96565;-79
2022/07/15 01:10:57;;;;;;;5.70;1.60;;;26.80;57.00;;;25.92;43.84;99661.16;10442434;27;97345;-78
2022/07/15 01:16:00;;;;;;;3.33;1.77;;;26.80;57.20;;;25.84;44.14;99698.72;10425856;27;96635;-79
2022/07/15 01:21:03;;;;;;;3.72;1.13;;;26.70;57.30;;;25.73;44.43;99696.31;10459862;27;96582;-79
2022/07/15 01:26:06;;;;;;;4.70;1.40;;;26.60;57.60;;;25.64;44.86;99698.81;10418213;27;96603;-79
2022/07/15 01:31:10;;;;;;;4.22;1.38;;;26.50;57.80;;;25.58;44.72;99721.69;10419510;27;98206;-79
2022/07/15 01:36:13;;;;;;;3.65;1.50;;;26.50;58.00;;;25.55;44.97;99733.13;10399499;28;96610;-78
2022/07/15 01:41:16;;;;;;;3.03;1.58;;;26.50;58.00;;;25.55;45.25;99733.13;10450371;27;98318;-79
2022/07/15 01:46:19;;;;;;;3.63;1.30;;;26.50;57.90;;;25.52;45.22;99728.25;10425932;27;97498;-78
2022/07/15 01:51:22;;;;;;;2.17;1.35;;;26.50;57.70;;;25.49;44.76;99726.06;10383351;28;96434;-79
2022/07/15 01:56:25;;;;;;;2.17;1.23;;;26.50;57.70;;;25.47;44.88;99710.03;10442614;27;98650;-80
2022/07/15 02:01:29;;;;;;;2.88;1.50;;;26.50;57.60;;;25.47;44.96;99712.75;10439099;27;96516;-80
2022/07/15 02:06:32;;;;;;;2.78;1.30;;;26.50;57.60;;;25.48;45.11;99708.13;10460001;27;97563;-81
2022/07/15 02:11:35;;;;;;;3.63;1.13;;;26.50;57.50;;;25.44;44.44;99712.50;10419858;27;96949;-79
2022/07/15 02:16:39;;;;;;;5.38;1.25;;;26.50;57.40;;;25.39;44.55;99698.94;10425082;27;96645;-79
2022/07/15 02:21:42;;;;;;;2.88;1.30;;;26.50;57.10;;;25.40;44.23;99725.03;10404558;27;97073;-79
2022/07/15 02:26:46;;;;;;;2.38;0.93;;;26.50;57.00;;;25.38;44.30;99765.31;10435456;27;96769;-79
2022/07/15 02:31:50;;;;;;;2.42;1.13;;;26.50;57.00;;;25.33;44.54;99796.03;10416187;27;96679;-79
2022/07/15 02:36:53;;;;;;;2.22;0.95;;;26.40;57.10;;;25.24;44.80;99806.63;10430073;27;98677;-79
2022/07/15 02:41:55;;;;;;;1.08;0.80;;;26.30;57.40;;;25.10;43.56;99800.13;10437163;27;96706;-84
2022/07/15 02:46:58;;;;;;;1.67;0.80;;;26.10;56.40;;;24.98;41.67;99794.94;10442427;27;97078;-85
2022/07/15 02:52:02;;;;;;;1.73;0.60;;;26.00;54.50;;;24.96;41.18;99805.28;10420171;27;97208;-85
2022/07/15 02:57:05;;;;;;;1.63;0.52;;;26.00;54.40;;;24.90;40.47;99800.94;10437809;27;96636;-84
2022/07/15 03:02:09;;;;;;;1.90;0.50;;;25.90;53.50;;;24.90;40.13;99802.84;10453599;27;97329;-83
2022/07/15 03:07:12;;;;;;;0.95;0.40;;;25.90;53.30;;;24.86;40.04;99791.69;10419801;27;96512;-84
2022/07/15 03:12:15;;;;;;;0.73;0.50;;;25.80;52.90;;;24.85;39.75;99783.81;10402191;28;96666;-83
2022/07/15 03:17:19;;;;;;;1.20;0.50;;;25.80;52.80;;;24.82;39.89;99772.38;10421088;27;96564;-83
2022/07/15 03:22:27;;;;;;;1.10;0.52;;;25.80;52.80;;;24.79;40.11;99783.81;10456783;27;96459;-82
2022/07/15 03:27:30;;;;;;;1.35;0.40;;;25.80;53.00;;;24.76;40.30;99808.81;10428963;27;97614;-84
2022/07/15 03:32:33;;;;;;;1.33;0.45;;;25.70;53.00;;;24.71;40.59;99789.81;10418674;27;96587;-85
2022/07/15 03:37:36;;;;;;;0.90;0.50;;;25.70;53.30;;;24.69;40.87;99786.53;10435435;27;96643;-84
2022/07/15 03:42:40;;;;;;;1.13;0.30;;;25.70;53.60;;;24.64;41.19;99772.94;10415953;27;97296;-84
2022/07/15 03:47:42;;;;;;;0.88;0.47;;;25.70;53.80;;;24.58;41.46;99790.31;10423959;27;96681;-83
2022/07/15 03:52:45;;;;;;;2.13;0.47;;;25.60;54.00;;;24.49;41.68;99792.75;10430978;27;97644;-83
2022/07/15 03:57:48;;;;;;;1.73;0.40;;;25.50;54.30;;;24.39;42.43;99790.00;10409605;28;96757;-85
2022/07/15 04:02:52;;;;;;;0.82;0.50;;;25.40;54.80;;;24.27;42.59;99801.09;10417943;27;96974;-83
2022/07/15 04:07:55;;;;;;;1.20;0.68;;;25.30;55.30;;;24.13;42.70;99794.53;10442983;27;97578;-85
2022/07/15 04:12:58;;;;;;;0.30;0.30;;;25.10;55.60;;;24.08;43.08;99807.28;10432012;27;96832;-83
2022/07/15 04:18:02;;;;;;;0.80;0.60;;;25.00;55.90;;;23.96;43.45;99800.19;10434849;27;96707;-83
2022/07/15 04:23:05;;;;;;;0.80;0.60;;;24.90;56.30;;;23.86;43.98;99802.84;10408729;27;97384;-83
2022/07/15 04:28:08;;;;;;;5.70;1.08;;;24.80;56.70;;;23.73;44.84;99812.28;10459881;27;96516;-84
2022/07/15 04:33:11;;;;;;;1.10;0.60;;;24.60;57.50;;;23.59;45.53;99811.09;10434973;27;96536;-82
2022/07/15 04:38:14;;;;;;;1.92;0.63;;;24.50;58.30;;;23.35;47.10;99842.41;10418063;27;96530;-83
2022/07/15 04:43:17;;;;;;;3.30;0.95;;;24.20;60.40;;;23.02;48.77;99848.91;10442953;27;96639;-84
2022/07/15 04:53:41;;;;;;;2.05;0.90;;;23.70;62.40;;;22.61;50.81;99876.41;10443591;27;96667;-81
2022/07/15 04:58:44;;;;;;;1.55;0.88;;;23.50;63.40;;;22.38;52.49;99863.16;10442705;27;96646;-81
2022/07/15 05:03:47;;;;;;;1.38;0.95;;;23.30;65.40;;;22.07;54.10;99870.03;10397669;27;96534;-80
2022/07/15 05:08:50;;;;;;;2.63;1.17;;;23.00;66.80;;;21.73;55.08;99874.75;10425175;27;97487;-82
2022/07/15 05:13:53;;;;;;;3.13;1.08;;;22.70;68.10;;;21.44;56.20;99865.94;10418026;27;96663;-80
2022/07/15 05:18:57;;;;;;;3.03;1.02;;;22.40;69.20;;;21.22;57.42;99865.81;10431010;27;96709;-83
2022/07/15 05:24:01;;;;;;;1.90;1.17;;;22.20;70.20;;;21.00;58.95;99890.88;10428566;27;97776;-80
2022/07/15 05:29:24;;;;;;;2.13;1.00;;;22.00;72.30;;;20.77;60.60;99893.69;10433871;27;96839;-84
2022/07/15 05:34:27;;;;;;;3.05;1.40;;;21.70;73.60;;;20.56;61.88;99870.88;10405763;27;96645;-84
2022/07/15 05:39:30;;;;;;;5.95;1.42;;;21.50;75.10;;;20.40;62.87;99877.84;10460575;27;97239;-83
2022/07/15 05:44:33;;;;;;;2.28;1.13;;;21.40;75.80;;;20.33;63.51;99898.72;10457004;27;96677;-87
2022/07/15 05:49:36;;;;;;;2.95;1.25;;;21.30;76.60;;;20.26;64.39;99889.94;10440717;27;97498;-91
2022/07/15 05:54:44;;;;;;;2.20;1.40;;;21.20;77.20;;;20.14;65.40;99924.22;10427002;27;96598;-87
2022/07/15 05:59:47;;;;;;;3.92;1.42;;;21.10;78.50;;;19.99;66.33;99924.72;10438737;27;96631;-95
2022/07/15 06:04:50;;;;;;;2.58;1.30;;;21.00;79.80;;;19.88;68.21;99952.53;10427160;27;96515;-88
2022/07/15 06:09:53;;;;;;;2.10;1.60;;;20.90;82.40;;;19.77;68.63;99959.53;10426670;27;96360;-91
2022/07/15 06:14:56;;;;;;;1.95;1.35;;;20.80;82.70;;;19.64;69.52;99976.75;10420556;27;97096;-92
2022/07/15 06:20:00;;;;;;;3.55;1.67;;;20.60;84.20;;;19.58;70.20;99976.84;10417033;28;96558;-90
2022/07/15 06:25:12;;;;;;;3.13;1.70;;;20.60;85.00;;;19.61;70.95;99979.09;10385814;28;96438;-89
2022/07/15 06:30:16;;;;;;;2.33;1.55;;;20.60;86.00;;;19.55;71.09;99988.06;10435703;27;96630;-93
2022/07/15 06:35:19;;;;;;;2.20;1.58;;;20.60;87.70;;;19.57;71.42;99959.84;10425348;27;96583;-88
2022/07/15 06:40:22;;;;;;;1.73;1.30;;;20.50;88.90;;;19.61;71.32;99941.34;10392519;27;96713;-89
2022/07/15 06:45:25;;;;;;;2.22;1.40;;;20.60;89.00;;;19.77;70.81;99991.91;10440339;27;96416;-90
2022/07/15 06:50:28;;;;;;;1.90;1.45;;;20.80;88.90;;;19.90;70.44;100020.50;10454148;27;96744;-88
2022/07/15 06:55:31;;;;;;;1.63;1.50;;;21.00;88.80;;;20.09;70.07;100005.88;10438204;27;96806;-89
2022/07/15 07:00:34;;;;;;;2.15;1.27;;;21.10;88.20;;;20.23;69.61;100007.28;10455218;27;97132;-89
2022/07/15 07:05:37;;;;;;;2.55;1.15;;;21.30;87.90;;;20.39;68.90;100026.50;10455158;27;96489;-90
2022/07/15 07:10:40;;;;;;;2.83;1.23;;;21.50;87.40;;;20.53;68.26;100060.31;10453617;27;96675;-90
2022/07/15 07:15:43;;;;;;;3.35;1.38;;;21.60;86.90;;;20.58;67.87;100079.34;10441237;27;96679;-90
2022/07/15 07:20:46;;;;;;;1.77;1.13;;;21.70;86.70;;;20.63;67.84;100100.19;10437059;27;96838;-88
2022/07/15 07:25:49;;;;;;;1.60;1.30;;;21.70;86.70;;;20.70;67.25;100107.13;10421795;27;96529;-86
2022/07/15 07:30:54;;;;;;;1.70;1.30;;;21.80;86.40;;;20.79;66.83;100115.69;10419529;27;96623;-87
2022/07/15 07:35:58;;;;;;;2.75;1.65;;;21.90;86.10;;;20.99;66.76;100112.59;10437744;27;96849;-87
2022/07/15 07:41:02;;;;;;;3.13;1.52;;;22.10;86.10;;;21.00;66.67;100103.44;10454842;27;97115;-87
2022/07/15 07:46:05;;;;;;;4.07;1.60;;;22.10;86.30;;;20.96;66.71;100108.50;10455431;27;96546;-89
2022/07/15 07:51:09;;;;;;;5.22;1.67;;;22.00;86.80;;;20.93;66.98;100117.09;10438308;27;96595;-88
2022/07/15 07:56:12;;;;;;;2.40;1.70;;;22.00;87.50;;;20.83;66.98;100117.69;10422494;27;96573;-91
2022/07/15 08:01:15;;;;;;;4.35;1.40;;;21.80;88.00;;;20.80;67.09;100106.53;10428463;27;96367;-91
2022/07/15 08:06:19;;;;;;;2.20;1.70;;;21.80;88.10;;;20.84;66.83;100076.09;10429129;27;96758;-94
2022/07/15 08:11:22;;;;;;;1.70;1.38;;;21.80;87.80;;;20.84;66.83;100067.19;10446289;27;96621;-92
2022/07/15 08:16:25;;;;;;;2.85;1.98;;;21.90;87.60;;;20.83;66.91;100097.97;10443168;27;96661;-90
2022/07/15 08:21:28;;;;;;;6.15;2.10;;;21.90;87.80;;;20.91;67.00;100113.78;10444684;27;96611;-89
2022/07/15 08:26:31;;;;;;;3.72;1.83;;;21.90;87.90;;;20.96;66.80;100086.06;10444450;27;96619;-91
2022/07/15 08:31:36;;;;;;;3.10;1.83;;;22.00;87.70;;;21.03;66.69;100086.75;10444916;27;96507;-91
2022/07/15 08:36:40;;;;;;;3.25;1.42;;;22.10;87.50;;;21.17;65.60;100087.28;10445208;27;96636;-90
2022/07/15 08:41:45;;;;;;;2.17;1.50;;;22.20;86.80;;;21.26;65.29;100096.66;10445395;27;98859;-91
2022/07/15 08:46:49;;;;;;;2.78;1.48;;;22.30;86.30;;;21.34;64.71;100109.81;10432788;27;96618;-91
2022/07/15 08:51:56;;;;;;;3.13;1.70;;;22.40;85.80;;;21.44;63.79;100076.78;10435191;27;96638;-89
2022/07/15 08:57:02;;;;;;;3.80;2.08;;;22.50;84.90;;;21.50;63.97;100136.09;10430896;27;96569;-88
2022/07/15 09:02:05;;;;;;;2.85;1.60;;;22.60;85.20;;;21.58;64.21;100133.00;10426522;27;96665;-90
2022/07/15 09:07:09;;;;;;;3.03;2.22;;;22.60;84.90;;;21.71;63.36;100114.84;10443241;27;98623;-89
2022/07/15 09:12:12;;;;;;;6.07;2.20;;;22.70;84.10;;;21.83;62.03;100112.88;10426620;27;96435;-89
2022/07/15 09:17:21;;;;;;;3.63;2.13;;;22.80;82.60;;;22.00;60.34;100121.03;10425535;27;99294;-91
2022/07/15 09:22:29;;;;;;;2.47;1.60;;;23.00;80.20;;;22.23;58.65;100133.63;10443009;27;96690;-88
2022/07/15 09:27:37;;;;;;;4.22;1.80;;;23.20;78.70;;;22.42;56.98;100129.59;10426425;27;96599;-92
2022/07/15 09:38:07;;;;;;;7.72;1.70;;;23.50;74.20;;;22.69;51.51;100141.38;10409116;27;96730;-89
2022/07/15 09:43:10;;;;;;;3.63;1.65;;;23.60;70.50;;;22.83;49.97;100133.72;10426678;27;96476;-90
2022/07/15 09:48:13;;;;;;;2.75;1.40;;;23.70;67.50;;;23.12;47.48;100130.88;10424697;27;96618;-89
2022/07/15 09:53:16;;;;;;;2.97;1.48;;;24.00;65.40;;;23.42;43.89;100114.97;10425933;27;96485;-85
2022/07/15 09:58:21;;;;;;;3.58;1.20;;;24.40;60.80;;;23.71;41.38;100126.44;10424587;27;96523;-87
2022/07/15 10:03:24;;;;;;;3.90;1.33;;;24.60;58.20;;;23.85;40.18;100126.81;10423752;27;96617;-89
2022/07/15 10:08:29;;;;;;;2.80;1.50;;;24.80;56.30;;;23.86;39.71;100133.06;10425027;27;96493;-90
2022/07/15 10:13:41;;;;;;;2.97;1.60;;;24.80;55.40;;;23.84;39.94;100110.81;10424940;27;96451;-90
2022/07/15 10:19:15;;;;;;;2.60;1.30;;;24.80;55.50;;;23.85;39.74;100077.16;10455936;27;97011;-90
2022/07/15 10:24:50;;;;;;;2.47;1.30;;;24.80;55.70;;;23.82;37.91;100085.84;10441444;27;96694;-93
2022/07/15 10:29:55;;;;;;;3.72;1.55;;;24.80;53.20;;;23.83;38.41;100069.28;10458146;27;96594;-89
2022/07/15 10:34:58;;;;;;;4.68;1.50;;;24.80;54.00;;;23.86;37.74;100063.34;10421941;27;98418;-90
2022/07/15 10:40:06;;;;;;;2.60;1.55;;;24.90;53.00;;;23.89;36.36;100062.00;10423685;27;96941;-89
2022/07/15 10:45:09;;;;;;;3.05;1.30;;;24.90;51.90;;;24.12;36.02;100061.66;10425098;27;96524;-89
2022/07/15 10:50:40;;;;;;;2.08;1.00;;;25.10;51.30;;;24.54;35.04;100053.53;10422869;27;96727;-89
2022/07/15 10:55:42;;;;;;;;;;;25.40;49.50;;;25.15;32.70;100058.44;10399384;28;96589;-88
2022/07/15 11:00:46;;;;;;;2.75;1.30;;;26.00;47.80;;;25.60;32.40;100046.00;10409137;27;96498;-87
2022/07/15 11:05:56;;;;;;;3.47;1.30;;;26.60;48.20;;;25.71;29.67;100061.25;10429270;27;98832;-91
2022/07/15 11:11:15;;;;;;;2.67;1.80;;;26.70;44.10;;;26.01;28.97;100051.50;10459175;27;96871;-90
2022/07/15 11:16:20;;;;;;;3.85;1.50;;;26.90;44.00;;;26.47;27.48;100048.72;10456350;27;96692;-93
2022/07/15 11:21:25;;;;;;;3.20;1.60;;;27.40;42.60;;;26.57;27.16;100048.69;10423904;27;96460;-89
2022/07/15 11:26:46;;;;;;;4.03;1.58;;;27.50;42.30;;;26.44;26.94;100065.63;10456171;27;96589;-93
2022/07/15 11:31:51;;;;;;;4.07;1.40;;;27.40;41.60;;;26.19;26.96;100052.81;10438844;27;96587;-92
2022/07/15 11:36:59;;;;;;;6.93;1.90;;;27.20;41.90;;;26.09;27.75;100064.56;10446428;27;96634;-88
2022/07/15 11:47:24;;;;;;;3.45;1.50;;;27.10;43.20;;;25.98;26.92;100062.94;10448688;27;96628;-89
2022/07/15 11:52:27;;;;;;;2.92;1.52;;;27.00;41.70;;;25.87;27.76;100070.28;10429945;27;96726;-89
2022/07/15 11:57:34;;;;;;;2.72;1.30;;;26.80;42.10;;;25.77;27.28;100065.63;10446883;27;96557;-89
2022/07/15 12:02:37;;;;;;;3.33;1.45;;;26.70;41.70;;;25.73;27.08;100067.28;10428410;27;96493;-91
2022/07/15 12:07:46;;;;;;;2.33;1.30;;;26.70;41.80;;;25.88;27.20;100069.19;10463157;27;96590;-90
2022/07/15 12:12:56;;;;;;;4.07;1.70;;;26.70;41.90;;;26.40;27.20;100066.19;10444158;27;96557;-91
2022/07/15 12:18:00;;;;;;;3.45;2.22;;;27.20;42.10;;;27.16;26.21;100053.38;10459898;27;96762;-89
2022/07/15 12:23:10;;;;;;;5.40;2.70;;;27.90;41.20;;;27.71;25.76;100054.16;10436986;27;97941;-89
2022/07/15 12:28:29;;;;;;;8.05;2.10;;;28.60;41.20;;;28.25;25.19;100058.59;10407565;27;96664;-90
2022/07/15 12:33:35;;;;;;;2.75;1.42;;;29.20;39.50;;;28.67;24.19;100041.50;10424004;27;96767;-84
2022/07/15 12:38:38;;;;;;;3.22;1.20;;;29.60;40.10;;;29.03;24.38;100041.88;10423308;27;96970;-86
2022/07/15 12:44:08;;;;;;;3.15;1.33;;;30.00;39.70;;;29.52;24.20;100029.72;10443770;27;96605;-86
2022/07/15 12:49:11;;;;;;;2.20;1.17;;;30.40;40.30;;;29.83;23.85;100037.44;10440340;27;96698;-87
2022/07/15 12:54:16;;;;;;;5.32;1.50;;;30.70;39.60;;;29.93;23.08;100030.94;10427337;27;96478;-87
2022/07/15 12:59:19;;;;;;;3.13;1.10;;;30.80;38.70;;;29.96;23.06;100033.91;10443631;27;96749;-89
2022/07/15 13:04:22;;;;;;;2.65;1.15;;;30.80;38.60;;;29.95;22.38;100039.69;10407526;27;96701;-87
2022/07/15 13:09:24;;;;;;;2.47;1.00;;;30.70;38.00;;;29.94;22.57;100029.84;10421038;27;96625;-86
2022/07/15 13:14:28;;;;;;;3.05;1.25;;;30.80;38.20;;;29.98;22.61;100036.34;10446339;27;96510;-86
2022/07/15 13:19:35;;;;;;;3.83;1.10;;;30.80;38.20;;;29.88;22.45;100031.88;10410177;27;97852;-85
2022/07/15 13:24:38;;;;;;;4.70;1.48;;;30.70;37.80;;;29.76;21.29;100046.03;10421303;27;96758;-87
2022/07/15 13:29:41;;;;;;;4.13;1.60;;;30.50;36.50;;;29.76;21.52;100042.47;10419186;27;97933;-87
2022/07/15 13:34:44;;;;;;;7.97;1.50;;;30.50;36.80;;;29.77;20.21;100046.84;10416356;27;97560;-90
2022/07/15 13:39:53;;;;;;;4.20;1.33;;;30.60;35.50;;;29.76;20.60;100047.94;10439067;27;96830;-87
2022/07/15 13:44:56;;;;;;;4.88;1.30;;;30.70;35.30;;;29.69;20.37;100061.19;10380950;28;98003;-87
2022/07/15 13:55:22;;;;;;;6.45;1.30;;;30.70;34.60;;;29.78;20.41;100064.88;10459609;27;96883;-84
2022/07/15 14:00:25;;;;;;;5.22;1.75;;;30.80;35.00;;;29.78;20.11;100062.16;10415957;27;96576;-89
2022/07/15 14:05:28;;;;;;;3.00;1.20;;;30.80;34.80;;;29.83;19.53;100070.28;10422532;27;97596;-86
2022/07/15 14:10:31;;;;;;;1.60;1.00;;;30.80;34.00;;;29.95;18.96;100069.81;10460613;27;96464;-86
2022/07/15 14:15:34;;;;;;;2.47;1.38;;;30.90;33.60;;;29.98;18.66;100064.53;10458074;27;96573;-81
2022/07/15 14:20:41;;;;;;;3.03;1.40;;;31.00;33.30;;;29.88;18.70;100064.72;10457454;27;96642;-84
2022/07/15 14:25:44;;;;;;;4.10;1.25;;;30.90;33.40;;;29.45;19.04;100064.00;10437122;27;97510;-85
2022/07/15 14:30:48;;;;;;;2.85;1.35;;;30.50;33.80;;;29.34;19.36;100060.63;10456725;27;96449;-86
2022/07/15 14:35:51;;;;;;;2.08;1.10;;;30.30;34.00;;;29.25;19.82;100062.38;10439710;27;96765;-84
2022/07/15 14:40:54;;;;;;;3.65;1.25;;;30.10;34.30;;;29.23;19.49;100065.41;10457364;27;96714;-84
2022/07/15 14:45:57;;;;;;;3.22;1.10;;;30.00;34.40;;;29.16;20.30;100069.63;10459916;27;96484;-86
2022/07/15 14:51:00;;;;;;;2.00;1.20;;;30.00;34.90;;;29.15;20.10;100062.50;10424313;27;96534;-82
2022/07/15 14:56:04;;;;;;;3.47;1.35;;;29.90;34.60;;;29.13;19.64;100067.47;10417859;27;96633;-84
2022/07/15 15:01:07;;;;;;;8.10;1.48;;;29.90;34.40;;;29.14;20.29;100060.88;10424954;27;96537;-84
2022/07/15 15:06:10;;;;;;;2.40;1.27;;;29.90;34.80;;;29.01;19.82;100063.22;10414662;27;96626;-84
2022/07/15 15:11:16;;;;;;;4.80;1.38;;;29.80;34.50;;;28.73;20.40;100072.31;10416382;27;96598;-82
2022/07/15 15:16:19;;;;;;;3.13;1.40;;;29.60;35.00;;;28.22;21.17;100078.28;10436057;27;96573;-82
2022/07/15 15:21:42;;;;;;;6.57;1.60;;;29.10;35.20;;;27.66;21.44;100079.53;10434574;27;96852;-83
2022/07/15 15:26:49;;;;;;;2.67;1.30;;;28.60;35.40;;;27.25;21.39;100080.88;10423683;27;97567;-86
2022/07/15 15:31:52;;;;;;;4.13;1.40;;;28.20;35.50;;;27.04;22.17;100094.56;10435483;27;96659;-83
2022/07/15 15:36:56;;;;;;;2.88;1.25;;;27.90;35.80;;;26.76;21.66;100079.72;10437309;27;97588;-85
2022/07/15 15:41:59;;;;;;;3.95;1.30;;;27.70;35.40;;;26.55;22.52;100089.03;10421636;27;96593;-85
2022/07/15 15:47:02;;;;;;;2.53;1.05;;;27.50;36.20;;;26.44;23.25;100103.75;10437419;27;98861;-86
2022/07/15 15:52:06;;;;;;;2.63;1.40;;;27.30;36.80;;;26.20;23.37;100087.94;10411501;27;97185;-84
2022/07/15 15:57:09;;;;;;;9.35;1.42;;;27.10;37.00;;;26.15;24.03;100082.53;10419955;27;96632;-85
2022/07/15 16:02:12;;;;;;;1.98;1.23;;;27.00;37.60;;;26.36;24.68;100081.41;10416747;27;98664;-85
2022/07/15 16:07:15;;;;;;;3.53;1.50;;;27.20;38.30;;;26.73;24.62;100074.81;10436386;27;97167;-90
2022/07/15 16:12:18;;;;;;;3.03;1.70;;;27.50;38.50;;;26.93;23.71;100085.66;10410154;27;96479;-89
2022/07/15 16:17:21;;;;;;;2.03;1.40;;;27.70;37.90;;;27.16;23.99;100070.56;10415685;27;96817;-89
2022/07/15 16:27:45;;;;;;;3.72;1.20;;;28.20;37.10;;;27.47;23.32;100057.56;10419653;28;96594;-87
2022/07/15 16:32:52;;;;;;;2.92;1.20;;;28.30;37.40;;;27.64;23.06;100061.81;10433989;27;96726;-90
2022/07/15 16:37:55;;;;;;;4.80;1.40;;;28.50;37.00;;;27.60;22.49;100061.56;10429085;27;96974;-85
2022/07/15 16:42:59;;;;;;;4.10;1.25;;;28.60;36.70;;;27.51;23.19;100062.44;10443901;27;96462;-89
2022/07/15 16:48:03;;;;;;;2.10;1.00;;;28.50;36.90;;;27.30;22.60;100065.31;10441289;27;97667;-90
2022/07/15 16:53:06;;;;;;;2.50;1.13;;;28.30;36.90;;;27.17;23.57;100074.13;10427151;27;97598;-88
2022/07/15 16:58:09;;;;;;;1.52;1.10;;;28.10;37.40;;;26.90;23.77;100072.56;10406082;27;96774;-87
2022/07/15 17:03:12;;;;;;;3.47;1.45;;;27.90;37.50;;;26.51;24.29;100085.22;10425445;27;96679;-86
2022/07/15 17:08:15;;;;;;;1.90;1.20;;;27.50;37.90;;;26.15;24.64;100096.16;10443071;27;96456;-87
2022/07/15 17:13:18;;;;;;;3.28;1.30;;;27.20;38.40;;;25.92;25.28;100107.59;10426737;27;96547;-87
2022/07/15 17:18:21;;;;;;;2.50;1.05;;;26.90;38.70;;;25.73;25.78;100110.84;10426252;27;97862;-86
2022/07/15 17:23:24;;;;;;;3.55;1.50;;;26.70;39.00;;;25.60;25.98;100112.13;10436619;27;98492;-86
2022/07/15 17:28:27;;;;;;;4.18;1.15;;;26.50;39.40;;;25.49;25.80;100115.94;10441091;27;97421;-85
2022/07/15 17:33:30;;;;;;;1.83;1.23;;;26.40;39.40;;;25.32;25.96;100116.16;10423831;27;97479;-85
2022/07/15 17:38:33;;;;;;;3.60;1.30;;;26.30;39.50;;;25.11;26.38;100113.59;10425234;27;96440;-87
2022/07/15 17:43:36;;;;;;;1.27;0.80;;;26.10;39.70;;;24.96;26.70;100117.06;10425125;27;97092;-89
2022/07/15 17:48:39;;;;;;;1.48;1.00;;;25.90;39.90;;;24.80;26.80;100119.69;10440036;27;96670;-88
2022/07/15 17:53:43;;;;;;;2.28;1.00;;;25.80;40.30;;;24.55;26.78;100119.53;10436079;27;96766;-88
2022/07/15 17:58:46;;;;;;;1.83;1.13;;;25.60;40.20;;;24.29;27.00;100130.22;10413123;27;99052;-85
2022/07/15 18:03:49;;;;;;;2.45;1.20;;;25.30;40.20;;;24.06;27.28;100124.31;10407483;27;98187;-89
2022/07/15 18:08:52;;;;;;;2.60;1.00;;;25.00;40.50;;;23.83;27.86;100133.59;10405925;27;96795;-86
2022/07/15 18:13:55;;;;;;;1.83;1.08;;;24.80;40.90;;;23.63;28.29;100135.03;10418980;27;97824;-88
2022/07/15 18:18:58;;;;;;;2.65;0.90;;;24.60;41.10;;;23.44;28.27;100133.69;10444052;27;96734;-86
2022/07/15 18:24:02;;;;;;;1.30;1.00;;;24.40;41.30;;;23.24;28.57;100137.81;10429066;27;97050;-86
2022/07/15 18:29:05;;;;;;;1.80;1.00;;;24.20;41.50;;;23.14;29.10;100140.38;10435034;27;96692;-86
2022/07/15 18:34:09;;;;;;;1.65;0.73;;;24.10;41.80;;;22.96;29.23;100152.34;10421988;27;96965;-86
2022/07/15 18:39:13;;;;;;;2.08;0.85;;;23.90;42.20;;;22.81;29.36;100151.31;10437975;27;96740;-85
2022/07/15 18:44:16;;;;;;;2.20;0.95;;;23.80;42.40;;;22.62;29.79;100154.28;10444338;27;96706;-88
2022/07/15 18:49:19;;;;;;;2.58;0.80;;;23.70;42.70;;;22.44;30.25;100157.25;10419459;27;96578;-88
2022/07/15 18:54:22;;;;;;;2.70;1.10;;;23.50;43.00;;;22.27;30.68;100159.13;10424143;27;98870;-86
2022/07/15 18:59:25;;;;;;;4.10;1.60;;;23.30;43.40;;;22.13;31.04;100164.88;10429008;27;98465;-83
2022/07/15 19:04:28;;;;;;;4.10;1.30;;;23.20;43.70;;;21.99;31.45;100165.38;10434780;27;96656;-82
2022/07/15 19:09:31;;;;;;;3.50;1.13;;;23.10;44.00;;;21.81;32.07;100169.94;10417754;27;96816;-80
2022/07/15 19:14:34;;;;;;;1.67;0.88;;;22.90;44.40;;;21.66;32.42;100169.66;10435493;27;96699;-83
2022/07/15 19:19:37;;;;;;;2.22;1.05;;;22.80;45.00;;;21.63;32.75;100178.25;10426790;27;98969;-84
2022/07/15 19:24:40;;;;;;;4.53;1.30;;;22.70;45.40;;;21.56;33.20;100175.69;10453367;27;96538;-84
2022/07/15 19:29:43;;;;;;;2.78;0.88;;;22.60;45.70;;;21.62;32.99;100193.66;10451259;27;96617;-84
2022/07/15 19:34:46;;;;;;;1.50;0.77;;;22.60;45.70;;;21.68;32.98;100196.47;10437437;27;97628;-84
2022/07/15 19:39:49;;;;;;;2.33;1.10;;;22.70;45.60;;;21.64;33.15;100193.41;10393412;27;96786;-83
2022/07/15 19:44:52;;;;;;;2.28;1.10;;;22.70;45.60;;;21.56;33.25;100193.78;10453159;27;96612;-84
2022/07/15 19:49:55;;;;;;;1.98;0.93;;;22.60;45.80;;;21.43;33.53;100200.31;10447780;27;98394;-83
2022/07/15 19:54:58;;;;;;;2.90;0.70;;;22.60;46.00;;;21.34;34.24;100196.31;10456304;27;96547;-83
2022/07/15 20:00:16;;;;;;;3.70;0.95;;;22.50;46.20;;;21.27;34.23;100198.31;10452644;27;97720;-84
2022/07/15 20:05:21;;;;;;;1.42;0.80;;;22.40;46.50;;;21.09;34.56;100199.25;10426471;27;96540;-83
2022/07/15 20:10:25;;;;;;;3.08;0.90;;;22.30;46.80;;;20.95;35.32;100195.19;10460681;27;96704;-83
2022/07/15 20:15:28;;;;;;;2.88;1.00;;;22.20;47.10;;;20.78;35.54;100192.34;10423586;27;96568;-83
2022/07/15 20:20:31;;;;;;;1.35;0.85;;;22.00;47.40;;;20.63;36.14;100210.88;10437487;27;97490;-84
2022/07/15 20:25:34;;;;;;;3.25;0.93;;;21.90;47.80;;;20.51;36.32;100217.13;10440914;27;98769;-84
2022/07/15 20:30:38;;;;;;;2.60;0.90;;;21.70;48.00;;;20.39;36.54;100213.56;10438685;27;98456;-92
2022/07/15 20:35:41;;;;;;;3.00;1.00;;;21.70;48.30;;;20.32;36.90;100205.53;10425103;27;98030;-92
2022/07/15 20:40:54;;;;;;;1.33;0.90;;;21.60;48.40;;;20.25;37.40;100228.28;10452492;27;98891;-91
2022/07/15 20:45:58;;;;;;;2.95;1.00;;;21.50;49.00;;;20.08;37.52;100225.41;10437044;27;96768;-91
2022/07/15 20:51:01;;;;;;;2.67;0.90;;;21.40;49.30;;;19.99;38.01;100233.00;10412422;27;97340;-91
2022/07/15 20:56:04;;;;;;;1.20;0.73;;;21.30;49.50;;;19.95;37.92;100229.13;10409979;27;96636;-92
2022/07/15 21:01:07;;;;;;;3.28;1.10;;;21.20;49.60;;;19.81;38.57;100226.84;10434015;27;97330;-92
2022/07/15 21:06:11;;;;;;;1.05;0.80;;;21.10;50.20;;;19.67;38.99;100234.25;10420084;27;96560;-91
2022/07/15 21:11:14;;;;;;;1.30;0.90;;;21.00;50.60;;;19.61;39.16;100257.56;10418419;27;96675;-92
2022/07/15 21:16:17;;;;;;;1.95;0.82;;;20.90;50.70;;;19.45;39.84;100258.97;10440797;27;97468;-90
2022/07/15 21:21:21;;;;;;;3.03;1.10;;;20.70;51.20;;;19.35;40.05;100257.81;10403197;28;96534;-93
2022/07/15 21:31:46;;;;;;;1.85;0.80;;;20.50;51.50;;;19.18;40.23;100273.75;10445401;27;97480;-93
2022/07/15 21:36:49;;;;;;;3.08;1.30;;;20.40;51.80;;;19.12;40.68;100280.03;10411961;27;96565;-93